Accueil
METAR-TAF:

METAR-TAF

Aéroports :

Oxford, Angleterre

Aéroport d'Oxford Kidlington

latitude: 51-50-13N, longitude: 1-19-12W, altitude: 82 m

Observation

Le bulletin a été fait il y a 6 heures et 47 minutes, à 22:20 UTC
Vent 3 kt de sud-ouest
Température 4°C
Humidité 93%
Pression 1022 hPa
Visibilité 10 km ou plus
pas de nuages en-dessous de 1500 mètres et pas de cumulonimbus.

METAR: EGTK 172220Z 23003KT CAVOK 04/03 Q1022

Heure: 05:07 (05:07 UTC)

Prévision

Le bulletin a été fait il y a 9 heures et 13 minutes, à 19:54 UTC
Prévision valable du 17 à 21 UTC au 17 à 23 UTC
Vent 3 kt de sud
Visibilité 10 km ou plus
Quelques nuages à une hauteur de 4000 ft
Probabilité 30%
du 17 à 21 UTC au 17 à 23 UTC
Visibilité: 7000 m

TAF: EGTK 171954Z 1721/1723 19003KT 9999 FEW040 PROB30 1721/1723 7000

Observations et prévisions météorologiques de plus de 4000 aéroports (messages METAR et TAF).

Les stations disponibles sont représentées par des disques jaunes et rouges sur la carte.

Passer la souris dessus pour voir le nom de la station.

Cliquer dessus pour voir les observations et prévisions météorologiques.

Pour changer de carte: cliquez sur les boutons verts avec une croix noire pour zoomer, sur le bouton vert avec un tiret pour effectuer un zoom arrière, ou sur les flèches vertes pour les cartes adjacentes.


METAR-TAF: